Time;durP1;ratioP1;P1;durP2;ratioP2;P2;SDS_P1;SDS_P2;PMS_P1;PMS_P2;Temp;Humidity;BMP_temperature;BMP_pressure;BME280_temperature;BME280_humidity;BME280_pressure;Samples;Min_cycle;Max_cycle;Signal;HPM_P1;HPM_P2
2021/01/23 00:02:02;;;;;;;10.07;5.20;;;4.30;1.00;;;;;;5033781;28;20586;-77
2021/01/23 00:04:28;;;;;;;10.07;5.40;;;;;;;;;;5033883;28;20199;-76
2021/01/23 00:06:54;;;;;;;7.43;5.00;;;;;;;;;;5032614;28;20427;-76
2021/01/23 00:09:22;;;;;;;8.50;5.23;;;4.30;1.00;;;;;;5034302;28;20882;-76
2021/01/23 00:11:48;;;;;;;9.90;5.63;;;;;;;;;;5033828;28;20530;-76
2021/01/23 00:14:14;;;;;;;13.88;5.43;;;;;;;;;;5033155;28;20152;-76
2021/01/23 00:16:40;;;;;;;11.05;5.05;;;;;;;;;;5049223;28;20653;-77
2021/01/23 00:19:08;;;;;;;7.80;4.43;;;;;;;;;;5053507;28;20183;-77
2021/01/23 00:21:35;;;;;;;9.02;4.38;;;4.30;1.00;;;;;;5053744;28;20414;-77
2021/01/23 00:24:02;;;;;;;6.90;4.15;;;4.20;1.00;;;;;;5040343;28;20192;-77
2021/01/23 00:26:28;;;;;;;11.50;5.85;;;;;;;;;;5032644;28;20181;-76
2021/01/23 00:28:54;;;;;;;10.67;5.60;;;4.20;1.00;;;;;;5033541;28;20223;-76
2021/01/23 00:31:20;;;;;;;8.70;5.43;;;;;;;;;;5050055;28;20413;-76
2021/01/23 00:33:46;;;;;;;31.02;6.32;;;;;;;;;;5053224;28;20271;-77
2021/01/23 00:36:12;;;;;;;7.93;4.50;;;;;;;;;;5052002;28;20649;-76
2021/01/23 00:38:37;;;;;;;6.72;4.90;;;4.20;1.00;;;;;;5053023;28;20919;-76
2021/01/23 00:41:03;;;;;;;9.73;4.80;;;;;;;;;;5053508;28;20160;-77
2021/01/23 00:43:29;;;;;;;11.32;4.20;;;4.30;1.00;;;;;;5052938;28;20172;-77
2021/01/23 00:45:55;;;;;;;9.63;5.27;;;;;;;;;;5036510;28;20184;-77
2021/01/23 00:48:21;;;;;;;9.23;5.63;;;;;;;;;;5033481;28;20192;-77
2021/01/23 00:50:47;;;;;;;14.98;7.00;;;;;;;;;;5033131;28;20397;-77
2021/01/23 00:53:14;;;;;;;14.75;6.35;;;4.30;1.00;;;;;;5033272;28;20188;-77
2021/01/23 00:55:39;;;;;;;12.13;5.93;;;4.30;1.00;;;;;;5033543;28;20164;-77
2021/01/23 00:58:05;;;;;;;13.97;5.50;;;;;;;;;;5033212;28;20226;-77
2021/01/23 01:00:31;;;;;;;13.68;5.53;;;4.40;1.00;;;;;;5033365;28;20620;-77
2021/01/23 01:02:57;;;;;;;13.30;6.70;;;;;;;;;;5032914;28;20194;-77
2021/01/23 01:05:26;;;;;;;9.63;5.40;;;4.40;1.00;;;;;;5032275;28;20175;-76
2021/01/23 01:07:52;;;;;;;10.02;6.22;;;;;;;;;;5032934;28;20403;-77
2021/01/23 01:10:18;;;;;;;12.02;5.03;;;4.40;1.00;;;;;;5048643;28;20179;-77
2021/01/23 01:12:43;;;;;;;8.67;4.87;;;4.40;1.00;;;;;;5032988;28;20191;-76
2021/01/23 01:15:09;;;;;;;12.27;5.53;;;4.30;1.00;;;;;;5032024;28;20180;-76
2021/01/23 01:17:35;;;;;;;11.52;5.00;;;4.30;1.00;;;;;;5051015;28;20580;-77
2021/01/23 01:20:01;;;;;;;10.90;5.30;;;;;;;;;;5052637;28;20207;-77
2021/01/23 01:22:28;;;;;;;15.80;5.50;;;4.30;1.00;;;;;;5053017;28;20187;-77
2021/01/23 01:24:57;;;;;;;8.65;5.43;;;4.30;1.00;;;;;;5052540;28;20175;-76
2021/01/23 01:27:23;;;;;;;12.30;5.75;;;;;;;;;;5051775;28;20180;-75
2021/01/23 01:29:50;;;;;;;10.90;5.50;;;;;;;;;;5038905;28;20207;-76
2021/01/23 01:32:16;;;;;;;11.35;5.43;;;4.30;1.00;;;;;;5032645;28;20473;-75
2021/01/23 01:34:42;;;;;;;9.27;5.25;;;4.30;1.00;;;;;;5032713;28;20156;-76
2021/01/23 01:37:08;;;;;;;10.68;6.05;;;;;;;;;;5048459;28;20254;-77
2021/01/23 01:39:34;;;;;;;9.93;5.88;;;4.40;1.00;;;;;;5050415;28;20156;-77
2021/01/23 01:42:02;;;;;;;16.47;6.47;;;4.30;1.00;;;;;;5033224;28;20168;-77
2021/01/23 01:44:27;;;;;;;11.00;5.07;;;4.40;1.00;;;;;;5032343;28;20519;-79
2021/01/23 01:46:53;;;;;;;10.83;5.03;;;;;;;;;;5032631;28;20172;-77
2021/01/23 01:49:19;;;;;;;12.27;5.70;;;4.40;1.00;;;;;;5032670;28;20160;-77
2021/01/23 01:51:45;;;;;;;14.53;5.57;;;;;;;;;;5032859;28;20549;-77
2021/01/23 01:54:12;;;;;;;9.93;5.43;;;4.40;1.00;;;;;;5032701;28;20388;-76
2021/01/23 01:56:38;;;;;;;14.13;6.18;;;;;;;;;;5032941;28;20458;-77
2021/01/23 01:59:04;;;;;;;10.40;5.47;;;4.40;1.00;;;;;;5032569;28;20197;-76
2021/01/23 02:01:32;;;;;;;13.93;5.60;;;4.40;1.00;;;;;;5032554;28;20395;-76
2021/01/23 02:04:04;;;;;;;9.20;5.57;;;4.40;1.00;;;;;;5032422;28;20234;-77
2021/01/23 02:06:49;;;;;;;10.18;5.25;;;4.40;1.00;;;;;;5032655;28;20168;-77
2021/01/23 02:09:35;;;;;;;11.35;5.53;;;4.40;1.00;;;;;;5032547;28;20157;-77
2021/01/23 02:12:05;;;;;;;9.60;5.50;;;4.40;1.00;;;;;;5041153;28;20199;-77
2021/01/23 02:14:53;;;;;;;10.32;5.43;;;4.50;1.00;;;;;;5048902;28;20604;-77
2021/01/23 02:17:22;;;;;;;20.13;5.38;;;4.50;1.00;;;;;;5049753;28;20203;-77
2021/01/23 02:19:48;;;;;;;10.63;5.78;;;;;;;;;;5052892;28;20191;-77
2021/01/23 02:22:37;;;;;;;13.43;5.80;;;4.60;1.00;;;;;;5036240;28;20615;-77
2021/01/23 02:25:04;;;;;;;12.43;5.28;;;4.60;1.00;;;;;;5035981;28;20407;-75
2021/01/23 02:27:50;;;;;;;12.27;5.47;;;4.60;1.00;;;;;;5048317;28;20638;-77
2021/01/23 02:30:26;;;;;;;8.73;5.00;;;4.60;1.00;;;;;;5055693;28;20250;-77
2021/01/23 02:32:55;;;;;;;17.42;5.47;;;4.50;1.00;;;;;;5055484;28;20214;-77
2021/01/23 02:35:23;;;;;;;11.00;5.55;;;4.50;1.00;;;;;;5045568;28;20723;-75
2021/01/23 02:37:50;;;;;;;14.77;6.05;;;4.50;1.00;;;;;;5048594;28;20175;-77
2021/01/23 02:40:16;;;;;;;13.52;5.65;;;4.60;1.00;;;;;;5055172;28;20607;-77
2021/01/23 02:42:42;;;;;;;14.55;6.00;;;;;;;;;;5055698;28;20164;-75
2021/01/23 02:45:10;;;;;;;18.50;6.70;;;4.60;1.00;;;;;;5055054;28;20164;-76
2021/01/23 02:47:37;;;;;;;8.95;5.18;;;4.70;1.00;;;;;;5052179;28;20180;-77
2021/01/23 02:50:04;;;;;;;19.17;6.90;;;4.70;1.00;;;;;;5055314;28;20243;-77
2021/01/23 02:52:51;;;;;;;12.32;5.82;;;4.70;1.00;;;;;;5055238;28;20264;-77
2021/01/23 02:55:20;;;;;;;11.55;5.97;;;4.70;1.00;;;;;;5055187;28;20164;-76
2021/01/23 02:57:49;;;;;;;8.75;5.63;;;4.70;1.00;;;;;;5055784;28;20196;-77
2021/01/23 03:00:17;;;;;;;9.65;5.53;;;4.60;1.00;;;;;;5053927;28;20259;-77
2021/01/23 03:02:56;;;;;;;12.15;5.78;;;4.70;1.00;;;;;;5035288;28;20168;-77
2021/01/23 03:05:28;;;;;;;10.60;5.13;;;4.70;1.00;;;;;;5035183;28;20191;-76
2021/01/23 03:07:55;;;;;;;16.95;6.40;;;4.60;1.00;;;;;;5033683;28;20184;-77
2021/01/23 03:10:37;;;;;;;11.23;6.22;;;4.60;1.00;;;;;;5035129;28;20164;-75
2021/01/23 03:13:04;;;;;;;17.77;6.20;;;4.70;1.00;;;;;;5035231;28;20671;-77
2021/01/23 03:15:33;;;;;;;8.43;5.10;;;4.70;1.00;;;;;;5033905;28;20226;-76
2021/01/23 03:18:00;;;;;;;18.88;6.00;;;4.70;1.00;;;;;;5036741;28;20172;-76
2021/01/23 03:20:26;;;;;;;10.80;5.40;;;4.70;1.00;;;;;;5034778;28;20532;-76
2021/01/23 03:22:56;;;;;;;13.13;5.85;;;4.70;1.00;;;;;;5040543;28;20176;-76
2021/01/23 03:25:22;;;;;;;16.40;6.35;;;;;;;;;;5034802;28;20196;-76
2021/01/23 03:27:48;;;;;;;10.82;5.28;;;;;;;;;;5034299;28;20202;-76
2021/01/23 03:30:15;;;;;;;11.67;6.23;;;;;;;;;;5034646;28;20214;-77
2021/01/23 03:32:41;;;;;;;16.98;5.10;;;4.80;1.00;;;;;;5034425;28;20856;-76
2021/01/23 03:35:07;;;;;;;10.87;5.17;;;4.80;1.00;;;;;;5034545;28;20177;-76
2021/01/23 03:37:33;;;;;;;8.32;4.80;;;4.80;1.00;;;;;;5034846;28;20661;-76
2021/01/23 03:40:04;;;;;;;9.75;5.47;;;4.80;1.00;;;;;;5034266;28;20164;-75
2021/01/23 03:42:29;;;;;;;9.75;5.50;;;4.80;1.00;;;;;;5034731;28;20243;-77
2021/01/23 03:44:55;;;;;;;13.33;5.93;;;;;;;;;;5045253;28;20270;-76
2021/01/23 03:47:21;;;;;;;19.48;5.57;;;;;;;;;;5054272;28;20619;-76
2021/01/23 03:49:47;;;;;;;10.85;5.93;;;4.70;1.00;;;;;;5054119;28;20168;-77
2021/01/23 03:52:14;;;;;;;8.47;4.30;;;4.70;1.00;;;;;;5052483;28;20199;-78
2021/01/23 03:54:40;;;;;;;7.90;4.32;;;4.60;1.00;;;;;;5054050;28;20522;-77
2021/01/23 03:57:07;;;;;;;11.15;4.38;;;;;;;;;;5054317;28;20255;-77
2021/01/23 03:59:33;;;;;;;11.20;4.93;;;;;;;;;;5053998;28;20160;-77
2021/01/23 04:01:59;;;;;;;13.70;4.53;;;;;;;;;;5054017;28;20156;-77
2021/01/23 04:04:25;;;;;;;7.90;4.23;;;;;;;;;;5052646;28;20871;-76
2021/01/23 04:06:57;;;;;;;9.03;4.60;;;4.60;1.00;;;;;;5050296;28;20411;-76
2021/01/23 04:09:22;;;;;;;9.70;4.55;;;4.60;1.00;;;;;;5033948;28;20458;-76
2021/01/23 04:11:49;;;;;;;8.00;5.00;;;4.60;1.00;;;;;;5034182;28;20622;-75
2021/01/23 04:14:15;;;;;;;12.35;5.50;;;;;;;;;;5033841;28;20161;-75
2021/01/23 04:16:41;;;;;;;6.03;4.15;;;4.60;1.00;;;;;;5047832;28;20172;-77
2021/01/23 04:19:07;;;;;;;10.93;4.77;;;;;;;;;;5053580;28;20182;-77
2021/01/23 04:21:33;;;;;;;8.93;4.30;;;;;;;;;;5050640;28;20185;-77
2021/01/23 04:23:59;;;;;;;10.00;5.32;;;;;;;;;;5033474;28;20184;-75
2021/01/23 04:26:25;;;;;;;9.02;4.60;;;;;;;;;;5033670;28;20202;-76
2021/01/23 04:28:51;;;;;;;7.57;4.25;;;;;;;;;;5038633;28;20156;-77
2021/01/23 04:31:17;;;;;;;7.70;3.97;;;;;;;;;;5053464;28;20158;-77
2021/01/23 04:33:43;;;;;;;11.30;5.10;;;;;;;;;;5053221;28;20986;-77
2021/01/23 04:36:09;;;;;;;6.50;4.20;;;4.40;1.00;;;;;;5053429;28;20387;-77
2021/01/23 04:38:34;;;;;;;7.97;4.10;;;4.30;1.00;;;;;;5053120;28;20890;-77
2021/01/23 04:41:00;;;;;;;8.37;4.00;;;;;;;;;;5053223;28;20604;-78
2021/01/23 04:43:26;;;;;;;22.60;4.40;;;;;;;;;;5053212;28;20581;-76
2021/01/23 04:45:53;;;;;;;15.50;4.83;;;;;;;;;;5053025;28;20164;-76
2021/01/23 04:48:19;;;;;;;7.00;4.20;;;;;;;;;;5050196;28;20480;-76
2021/01/23 04:50:46;;;;;;;6.45;4.13;;;4.10;1.00;;;;;;5053224;28;20305;-75
2021/01/23 04:53:13;;;;;;;11.32;4.80;;;4.10;1.00;;;;;;5052963;28;20674;-76
2021/01/23 04:55:39;;;;;;;9.15;5.10;;;;;;;;;;5050925;28;20546;-76
2021/01/23 04:58:05;;;;;;;7.57;3.90;;;;;;;;;;5033501;28;20670;-77
2021/01/23 05:00:31;;;;;;;7.20;3.97;;;;;;;;;;5033048;28;20232;-77
2021/01/23 05:03:01;;;;;;;6.27;3.73;;;3.90;1.00;;;;;;5033118;28;20408;-77
2021/01/23 05:05:28;;;;;;;6.68;3.47;;;;;;;;;;5033104;28;20411;-77
2021/01/23 05:07:54;;;;;;;5.97;3.17;;;;;;;;;;5033003;28;20218;-77
2021/01/23 05:10:24;;;;;;;10.88;4.47;;;3.90;1.00;;;;;;5033326;28;20188;-76
2021/01/23 05:12:51;;;;;;;4.75;3.15;;;3.80;1.00;;;;;;5033240;28;20188;-75
2021/01/23 05:15:33;;;;;;;10.18;3.55;;;3.80;1.00;;;;;;5031796;28;20242;-75
2021/01/23 05:18:06;;;;;;;10.32;4.32;;;3.80;1.00;;;;;;5035827;28;20180;-75
2021/01/23 05:20:52;;;;;;;6.40;3.90;;;3.70;1.00;;;;;;5032715;28;20565;-76
2021/01/23 05:23:23;;;;;;;15.13;4.00;;;3.70;1.00;;;;;;5032729;28;20322;-79
2021/01/23 05:25:58;;;;;;;7.93;3.60;;;3.60;1.00;;;;;;5039135;28;20175;-78
2021/01/23 05:28:37;;;;;;;8.05;3.47;;;3.60;1.00;;;;;;5053140;28;20167;-76
2021/01/23 05:31:05;;;;;;;4.68;3.25;;;3.60;1.00;;;;;;5052744;28;20190;-76
2021/01/23 05:33:33;;;;;;;9.40;2.83;;;3.60;1.00;;;;;;5052527;28;20230;-77
2021/01/23 05:36:09;;;;;;;4.97;3.17;;;3.50;1.00;;;;;;5052752;28;20152;-77
2021/01/23 05:38:40;;;;;;;5.45;2.70;;;3.50;1.00;;;;;;5052310;28;20492;-77
2021/01/23 05:41:08;;;;;;;4.10;3.20;;;3.50;1.00;;;;;;5040339;28;20180;-77
2021/01/23 05:43:41;;;;;;;6.28;3.50;;;3.40;1.00;;;;;;5032860;28;20194;-77
2021/01/23 05:46:08;;;;;;;6.47;3.17;;;3.40;1.00;;;;;;5032836;28;20188;-77
2021/01/23 05:48:36;;;;;;;4.40;2.83;;;3.40;1.00;;;;;;5032545;28;20172;-77
2021/01/23 05:51:02;;;;;;;4.53;3.17;;;;;;;;;;5032929;28;20184;-75
2021/01/23 05:53:29;;;;;;;5.85;3.80;;;3.30;1.00;;;;;;5036390;28;20204;-77
2021/01/23 05:55:57;;;;;;;8.90;3.40;;;3.30;1.00;;;;;;5036708;28;20184;-77
2021/01/23 05:58:23;;;;;;;4.82;3.03;;;;;;;;;;5036778;28;20184;-76
2021/01/23 06:00:49;;;;;;;4.43;3.20;;;;;;;;;;5036276;28;20223;-76
2021/01/23 06:03:15;;;;;;;5.18;3.10;;;3.20;1.00;;;;;;5036344;28;20399;-77
2021/01/23 06:05:42;;;;;;;4.57;2.95;;;;;;;;;;5036517;28;20280;-77
2021/01/23 06:08:09;;;;;;;3.67;2.65;;;;;;;;;;5051549;28;20181;-77
2021/01/23 06:10:37;;;;;;;5.78;2.75;;;3.10;1.00;;;;;;5036600;28;20626;-75
2021/01/23 06:13:03;;;;;;;2.50;2.00;;;3.00;1.00;;;;;;5036423;28;20647;-76
2021/01/23 06:15:32;;;;;;;7.50;3.28;;;3.00;1.00;;;;;;5034926;28;20191;-77
2021/01/23 06:18:06;;;;;;;4.10;2.65;;;2.90;1.00;;;;;;5035848;28;20184;-76
2021/01/23 06:20:40;;;;;;;3.72;3.03;;;2.80;1.00;;;;;;5049978;28;20186;-77
2021/01/23 06:23:07;;;;;;;4.10;2.35;;;;;;;;;;5055851;28;20172;-77
2021/01/23 06:25:50;;;;;;;4.43;2.53;;;2.80;1.00;;;;;;5053701;28;20203;-76
2021/01/23 06:28:22;;;;;;;4.32;2.80;;;2.80;1.00;;;;;;5056447;28;20202;-77
2021/01/23 06:30:51;;;;;;;3.58;2.35;;;2.80;1.00;;;;;;5055773;28;20521;-76
2021/01/23 06:33:23;;;;;;;4.18;2.50;;;2.70;1.00;;;;;;5055466;28;20207;-77
2021/01/23 06:36:10;;;;;;;7.93;2.85;;;2.60;1.00;;;;;;5038378;28;20172;-77
2021/01/23 06:38:37;;;;;;;6.13;3.90;;;2.60;1.00;;;;;;5054099;28;20246;-75
2021/01/23 06:41:24;;;;;;;4.53;2.90;;;2.50;1.00;;;;;;5055528;28;20160;-77
2021/01/23 06:44:08;;;;;;;5.47;2.50;;;2.50;1.00;;;;;;5050964;28;20497;-77
2021/01/23 06:46:35;;;;;;;6.82;3.17;;;2.50;1.00;;;;;;5045845;28;20207;-75
2021/01/23 06:49:02;;;;;;;7.43;3.13;;;2.40;1.00;;;;;;5049836;28;20167;-76
2021/01/23 06:51:28;;;;;;;7.45;2.70;;;2.40;1.00;;;;;;5055205;28;20604;-77
2021/01/23 06:54:21;;;;;;;6.13;3.20;;;2.40;1.00;;;;;;5055217;28;20168;-78
2021/01/23 06:56:47;;;;;;;5.60;3.60;;;2.40;1.00;;;;;;5055022;28;20168;-76
2021/01/23 06:59:23;;;;;;;3.70;2.57;;;2.40;1.00;;;;;;5055441;28;20217;-75
2021/01/23 07:01:57;;;;;;;6.95;3.83;;;2.40;1.00;;;;;;5041455;28;20430;-75
2021/01/23 07:04:24;;;;;;;14.82;3.38;;;2.40;1.00;;;;;;5048694;28;20179;-76
2021/01/23 07:06:50;;;;;;;8.20;2.90;;;2.40;1.00;;;;;;5036229;28;20177;-76
2021/01/23 07:09:16;;;;;;;6.03;3.47;;;;;;;;;;5034997;28;20314;-78
2021/01/23 07:11:42;;;;;;;5.70;3.33;;;;;;;;;;5035392;28;20419;-76
2021/01/23 07:14:08;;;;;;;7.55;3.92;;;;;;;;;;5035051;28;20183;-81
2021/01/23 07:16:51;;;;;;;5.00;2.70;;;2.40;1.00;;;;;;5034914;28;20157;-76
2021/01/23 07:19:17;;;;;;;9.73;3.10;;;;;;;;;;5034768;28;20645;-76
2021/01/23 07:21:46;;;;;;;3.37;2.70;;;2.40;1.00;;;;;;5035033;28;20180;-76
2021/01/23 07:24:12;;;;;;;6.40;3.70;;;2.50;1.00;;;;;;5034749;28;20823;-76
2021/01/23 07:26:38;;;;;;;5.63;3.05;;;;;;;;;;5034806;28;20165;-76
2021/01/23 07:29:05;;;;;;;4.35;3.45;;;;;;;;;;5033723;28;20234;-76
2021/01/23 07:31:32;;;;;;;7.88;4.35;;;2.60;1.00;;;;;;5034877;28;20607;-76
2021/01/23 07:34:00;;;;;;;5.97;3.83;;;2.70;1.00;;;;;;5054359;28;20215;-76
2021/01/23 07:36:32;;;;;;;10.32;4.35;;;;;;;;;;5054495;28;20156;-76
2021/01/23 07:39:05;;;;;;;13.23;4.90;;;2.90;1.00;;;;;;5054172;28;20682;-76
2021/01/23 07:41:33;;;;;;;8.32;3.67;;;3.00;1.00;;;;;;5054389;28;20152;-76
2021/01/23 07:44:00;;;;;;;14.48;4.45;;;3.10;1.00;;;;;;5054314;28;20156;-78
2021/01/23 07:46:42;;;;;;;11.57;4.82;;;3.20;1.00;;;;;;5054310;28;20188;-78
2021/01/23 07:49:18;;;;;;;13.65;5.43;;;3.30;1.00;;;;;;5034295;28;20172;-78
2021/01/23 07:51:44;;;;;;;11.90;5.03;;;3.40;1.00;;;;;;5034160;28;20243;-78
2021/01/23 07:54:12;;;;;;;7.60;4.83;;;3.50;1.00;;;;;;5053702;28;20698;-78
2021/01/23 07:56:51;;;;;;;12.30;4.85;;;3.50;1.00;;;;;;5053966;28;20160;-78
2021/01/23 07:59:17;;;;;;;11.38;4.82;;;;;;;;;;5054288;28;20202;-75
2021/01/23 08:01:43;;;;;;;8.13;4.80;;;;;;;;;;5041389;28;20265;-76
2021/01/23 08:04:28;;;;;;;7.47;3.83;;;3.70;1.00;;;;;;5048122;28;20650;-76
2021/01/23 08:07:29;;;;;;;9.48;4.90;;;3.80;1.00;;;;;;5043734;28;20270;-80
2021/01/23 08:10:17;;;;;;;10.13;5.90;;;3.90;1.00;;;;;;5042178;28;20176;-78
2021/01/23 08:12:56;;;;;;;8.65;4.43;;;3.90;1.00;;;;;;5050545;28;20242;-79
2021/01/23 08:15:27;;;;;;;18.23;5.10;;;4.00;1.00;;;;;;5054115;28;20237;-76
2021/01/23 08:17:54;;;;;;;12.63;5.38;;;4.00;1.00;;;;;;5040175;28;20164;-76
2021/01/23 08:20:41;;;;;;;11.18;5.55;;;4.10;1.00;;;;;;5034181;28;20620;-76
2021/01/23 08:23:12;;;;;;;9.23;4.95;;;4.10;1.00;;;;;;5034976;28;20183;-76
2021/01/23 08:25:54;;;;;;;11.68;5.70;;;4.10;1.00;;;;;;5043868;28;20519;-75
2021/01/23 08:28:40;;;;;;;14.52;6.30;;;4.20;1.00;;;;;;5053907;28;20155;-75
2021/01/23 08:31:26;;;;;;;21.35;6.55;;;4.30;1.00;;;;;;5044939;28;20271;-78
2021/01/23 08:33:56;;;;;;;11.05;6.25;;;4.30;1.00;;;;;;5035258;28;20215;-77
2021/01/23 08:36:27;;;;;;;10.63;5.82;;;4.40;1.00;;;;;;5053379;28;20183;-76
2021/01/23 08:39:04;;;;;;;14.35;6.88;;;4.40;1.00;;;;;;5052943;28;20171;-76
2021/01/23 08:41:30;;;;;;;11.98;6.68;;;4.40;1.00;;;;;;5052794;28;20258;-77
2021/01/23 08:43:56;;;;;;;17.27;7.22;;;;;;;;;;5053155;28;20164;-75
2021/01/23 08:46:22;;;;;;;19.38;8.00;;;;;;;;;;5053177;28;20267;-76
2021/01/23 08:48:50;;;;;;;12.18;7.07;;;;;;;;;;5050027;28;20619;-76
2021/01/23 08:51:16;;;;;;;124.60;47.78;;;4.70;1.00;;;;;;5053150;28;20160;-85
2021/01/23 08:53:42;;;;;;;18.50;9.23;;;;;;;;;;5048624;28;20200;-83
2021/01/23 08:56:08;;;;;;;144.32;50.00;;;;;;;;;;5050494;28;20479;-77
2021/01/23 08:58:34;;;;;;;158.98;57.25;;;4.90;1.00;;;;;;5033491;28;20223;-76
2021/01/23 09:01:00;;;;;;;15.73;7.93;;;;;;;;;;5040880;28;20644;-84
2021/01/23 09:03:26;;;;;;;10.88;6.95;;;;;;;;;;5052743;28;20254;-75
2021/01/23 09:05:52;;;;;;;14.97;7.80;;;;;;;;;;5043182;28;20295;-76
2021/01/23 09:08:20;;;;;;;23.10;7.72;;;5.30;1.00;;;;;;5037549;28;20873;-75
2021/01/23 09:10:46;;;;;;;207.73;63.92;;;;;;;;;;5037350;28;20176;-76
2021/01/23 09:13:13;;;;;;;26.20;11.32;;;;;;;;;;5032887;28;20196;-76
2021/01/23 09:15:39;;;;;;;30.00;12.37;;;;;;;;;;5033159;28;20195;-75
2021/01/23 09:18:05;;;;;;;63.30;26.27;;;5.60;1.00;;;;;;5032844;28;20383;-76
2021/01/23 09:20:33;;;;;;;19.63;6.38;;;;;;;;;;5032903;28;20415;-75
2021/01/23 09:22:59;;;;;;;43.53;18.90;;;;;;;;;;5033439;28;20176;-76
2021/01/23 09:25:25;;;;;;;14.20;7.50;;;;;;;;;;5032890;28;20192;-76
2021/01/23 09:27:51;;;;;;;10.93;6.07;;;;;;;;;;5036252;28;20905;-76
2021/01/23 09:30:56;;;;;;;10.10;5.27;;;5.70;1.00;;;;;;5041892;28;20477;-78
2021/01/23 09:33:56;;;;;;;41.00;15.80;;;5.60;1.00;;;;;;5050579;28;20821;-77
2021/01/23 09:36:44;;;;;;;14.93;7.70;;;5.60;1.00;;;;;;5037282;28;20457;-77
2021/01/23 09:42:32;;;;;;;15.40;6.43;;;5.70;1.00;;;;;;5057368;28;20433;-77
2021/01/23 09:45:26;;;;;;;10.50;5.33;;;5.60;1.00;;;;;;5055729;28;20199;-76
2021/01/23 09:47:57;;;;;;;12.93;5.25;;;5.60;1.00;;;;;;5044225;28;20481;-77
2021/01/23 09:50:56;;;;;;;18.87;7.47;;;5.50;1.00;;;;;;5057006;28;20164;-77
2021/01/23 09:53:26;;;;;;;9.40;5.63;;;5.50;1.00;;;;;;5050826;28;20808;-77
2021/01/23 09:55:56;;;;;;;37.93;11.37;;;5.40;1.00;;;;;;5049564;28;20242;-77
2021/01/23 09:58:26;;;;;;;36.77;13.90;;;5.50;1.00;;;;;;5056917;28;20854;-77
2021/01/23 10:00:52;;;;;;;77.10;22.00;;;5.50;1.00;;;;;;5037346;28;20937;-75
2021/01/23 10:03:18;;;;;;;27.33;11.50;;;5.50;1.00;;;;;;5046527;28;20466;-76
2021/01/23 10:05:44;;;;;;;12.90;6.27;;;5.50;1.00;;;;;;5049232;28;20247;-75
2021/01/23 10:08:14;;;;;;;38.43;15.37;;;5.50;1.00;;;;;;5037033;28;20635;-75
2021/01/23 10:10:40;;;;;;;64.63;20.70;;;5.60;1.00;;;;;;5050321;28;20414;-75
2021/01/23 10:13:06;;;;;;;63.77;21.10;;;5.60;1.00;;;;;;5050919;28;20461;-75
2021/01/23 10:15:33;;;;;;;16.80;7.80;;;;;;;;;;5041402;28;20167;-75
2021/01/23 10:18:20;;;;;;;86.10;27.30;;;5.80;1.00;;;;;;5036455;28;20628;-79
2021/01/23 10:20:56;;;;;;;16.43;7.50;;;5.80;1.00;;;;;;5055833;28;20394;-76
2021/01/23 10:23:22;;;;;;;11.97;6.00;;;5.90;1.00;;;;;;5055319;28;20893;-75
2021/01/23 10:25:50;;;;;;;25.63;9.80;;;6.00;1.00;;;;;;5056708;28;20417;-75
2021/01/23 10:28:27;;;;;;;25.00;9.10;;;6.00;1.00;;;;;;5056703;28;20614;-75
2021/01/23 10:31:26;;;;;;;18.47;8.27;;;6.10;1.00;;;;;;5056904;28;20394;-75
2021/01/23 10:33:56;;;;;;;25.20;9.20;;;6.90;1.00;;;;;;5036339;28;20462;-76
2021/01/23 10:36:26;;;;;;;24.63;10.03;;;7.70;1.00;;;;;;5041095;28;20422;-76
2021/01/23 10:39:32;;;;;;;22.60;10.30;;;8.10;1.00;;;;;;5056155;28;20813;-76
2021/01/23 10:42:03;;;;;;;36.60;13.57;;;8.50;1.00;;;;;;5056096;28;20464;-76
2021/01/23 10:44:50;;;;;;;13.20;6.37;;;8.50;1.00;;;;;;5056070;28;20429;-76
2021/01/23 10:50:39;;;;;;;12.37;6.53;;;8.60;1.00;;;;;;5056202;28;20401;-75
2021/01/23 10:53:20;;;;;;;24.33;9.50;;;8.60;1.00;;;;;;5055730;28;20442;-76
2021/01/23 10:56:20;;;;;;;18.80;8.00;;;8.80;1.00;;;;;;5055824;28;20474;-76
2021/01/23 10:59:08;;;;;;;20.23;10.23;;;9.10;1.00;;;;;;5056142;28;20493;-76
2021/01/23 11:01:44;;;;;;;20.17;9.33;;;9.10;1.00;;;;;;5050596;28;20918;-75
2021/01/23 11:04:20;;;;;;;15.47;8.00;;;9.20;1.00;;;;;;5047608;28;20409;-75
2021/01/23 11:06:56;;;;;;;14.93;8.17;;;9.30;1.00;;;;;;5040341;28;20464;-75
2021/01/23 11:09:22;;;;;;;20.93;9.70;;;9.40;1.00;;;;;;5037790;28;20731;-75
2021/01/23 11:11:50;;;;;;;20.93;9.30;;;9.30;1.00;;;;;;5055656;28;20390;-75
2021/01/23 11:14:33;;;;;;;21.33;9.10;;;9.50;1.00;;;;;;5055567;28;20612;-76
2021/01/23 11:17:14;;;;;;;21.90;10.57;;;9.60;1.00;;;;;;5055940;28;20403;-75
2021/01/23 11:20:26;;;;;;;30.73;12.60;;;9.70;1.00;;;;;;5055573;28;20791;-77
2021/01/23 11:22:57;;;;;;;27.63;12.20;;;9.50;1.00;;;;;;5050844;28;20427;-76
2021/01/23 11:25:27;;;;;;;20.67;10.27;;;9.50;1.00;;;;;;5044562;28;20464;-78
2021/01/23 11:27:56;;;;;;;21.90;9.13;;;9.40;1.00;;;;;;5055316;28;20391;-77
2021/01/23 11:33:26;;;;;;;26.87;11.10;;;9.30;1.00;;;;;;5055007;28;20511;-76
2021/01/23 11:35:56;;;;;;;173.77;54.90;;;9.20;1.00;;;;;;5055170;28;20395;-76
2021/01/23 11:38:26;;;;;;;114.00;44.03;;;8.80;1.00;;;;;;5055401;28;20947;-76
2021/01/23 11:40:52;;;;;;;15.23;7.60;;;8.60;1.00;;;;;;5054963;28;20398;-76
2021/01/23 11:43:56;;;;;;;18.93;9.50;;;8.50;1.00;;;;;;5055030;28;20865;-76
2021/01/23 11:46:27;;;;;;;9.27;5.10;;;8.30;1.00;;;;;;5055472;28;20156;-76
2021/01/23 11:48:56;;;;;;;14.27;7.10;;;8.20;1.00;;;;;;5054435;28;20889;-76
2021/01/23 11:51:27;;;;;;;43.20;18.70;;;7.80;1.00;;;;;;5055064;28;20386;-77
2021/01/23 11:53:58;;;;;;;11.00;5.87;;;7.80;1.00;;;;;;5054587;28;20536;-76
2021/01/23 11:56:27;;;;;;;31.97;14.60;;;7.80;1.00;;;;;;5054691;28;20858;-76
2021/01/23 11:58:56;;;;;;;22.30;9.80;;;7.70;1.00;;;;;;5054643;28;20885;-76
2021/01/23 12:01:27;;;;;;;19.43;6.30;;;7.60;1.00;;;;;;5048825;28;20416;-77
2021/01/23 12:03:52;;;;;;;31.13;14.80;;;7.50;1.00;;;;;;5043362;28;20406;-77
2021/01/23 12:06:33;;;;;;;21.97;8.70;;;7.50;1.00;;;;;;5054409;28;20395;-77
2021/01/23 12:08:58;;;;;;;36.13;17.77;;;7.50;1.00;;;;;;5054457;28;20198;-77
2021/01/23 12:11:27;;;;;;;10.50;5.70;;;7.50;1.00;;;;;;5043361;28;20835;-76
2021/01/23 12:13:57;;;;;;;11.33;5.40;;;7.40;1.00;;;;;;5054369;28;20546;-77
2021/01/23 12:16:23;;;;;;;27.57;11.67;;;7.30;1.00;;;;;;5050852;28;20439;-73
2021/01/23 12:18:57;;;;;;;25.37;11.00;;;7.30;1.00;;;;;;5043727;28;20975;-74
2021/01/23 12:21:26;;;;;;;23.93;7.90;;;7.30;1.00;;;;;;5054362;28;20176;-74
2021/01/23 12:23:55;;;;;;;11.17;5.83;;;7.30;1.00;;;;;;5043706;28;20419;-73
2021/01/23 12:26:21;;;;;;;101.40;40.17;;;7.30;1.00;;;;;;5052584;28;20403;-73
2021/01/23 12:28:47;;;;;;;45.67;21.13;;;7.40;1.00;;;;;;5043470;28;20597;-73
2021/01/23 12:31:13;;;;;;;13.47;6.20;;;7.50;1.00;;;;;;5038336;28;20509;-73
2021/01/23 12:33:39;;;;;;;24.87;10.20;;;;;;;;;;5044496;28;20540;-77
2021/01/23 12:36:26;;;;;;;12.13;5.90;;;7.50;1.00;;;;;;5054105;28;20414;-77
2021/01/23 12:38:56;;;;;;;9.50;5.00;;;7.60;1.00;;;;;;5053505;28;20405;-77
2021/01/23 12:41:26;;;;;;;31.93;14.70;;;7.60;1.00;;;;;;5053722;28;20477;-77
2021/01/23 12:44:05;;;;;;;29.53;12.43;;;7.60;1.00;;;;;;5054068;28;20444;-76
2021/01/23 12:46:44;;;;;;;11.33;4.80;;;7.70;1.00;;;;;;5052706;28;20762;-75
2021/01/23 12:49:11;;;;;;;5.40;3.80;;;7.80;1.00;;;;;;5053640;28;20463;-74
2021/01/23 12:51:56;;;;;;;15.33;6.93;;;7.80;1.00;;;;;;5053835;28;20402;-78
2021/01/23 12:54:26;;;;;;;17.30;8.30;;;7.70;1.00;;;;;;5053919;28;20398;-77
2021/01/23 13:00:17;;;;;;;16.47;7.17;;;7.70;1.00;;;;;;5052960;28;20429;-73
2021/01/23 13:02:43;;;;;;;34.27;14.70;;;7.80;1.00;;;;;;5038412;28;20431;-77
2021/01/23 13:05:12;;;;;;;16.57;7.50;;;;;;;;;;5050775;28;20406;-77
2021/01/23 13:07:38;;;;;;;9.47;5.83;;;7.80;1.00;;;;;;5033042;28;20437;-77
2021/01/23 13:10:04;;;;;;;17.33;8.57;;;7.80;1.00;;;;;;5038364;28;20422;-77
2021/01/23 13:12:30;;;;;;;113.97;36.83;;;7.80;1.00;;;;;;5052842;28;20213;-76
2021/01/23 13:14:56;;;;;;;31.93;13.83;;;;;;;;;;5052833;28;20489;-77
2021/01/23 13:17:21;;;;;;;41.40;16.40;;;7.90;1.00;;;;;;5053253;28;20177;-75
2021/01/23 13:19:52;;;;;;;26.50;9.20;;;7.90;1.00;;;;;;5052729;28;20406;-75
2021/01/23 13:22:18;;;;;;;100.93;32.80;;;7.80;1.00;;;;;;5053061;28;20206;-75
2021/01/23 13:24:44;;;;;;;27.60;11.07;;;;;;;;;;5052701;28;20398;-75
2021/01/23 13:27:09;;;;;;;69.23;26.20;;;7.80;1.00;;;;;;5052672;28;20402;-75
2021/01/23 13:29:36;;;;;;;33.00;12.53;;;;;;;;;;5052669;28;20398;-75
2021/01/23 13:32:02;;;;;;;29.13;11.73;;;;;;;;;;5052647;28;20246;-75
2021/01/23 13:34:27;;;;;;;43.73;18.17;;;7.80;1.00;;;;;;5052830;28;20383;-75
2021/01/23 13:36:53;;;;;;;43.33;14.53;;;;;;;;;;5052729;28;20399;-75
2021/01/23 13:39:19;;;;;;;14.80;6.10;;;7.70;1.00;;;;;;5052329;28;20156;-76
2021/01/23 13:41:45;;;;;;;19.73;9.07;;;;;;;;;;5052512;28;20393;-75
2021/01/23 13:44:10;;;;;;;23.63;10.80;;;7.70;1.00;;;;;;5050785;28;20184;-76
2021/01/23 13:46:36;;;;;;;84.63;34.87;;;;;;;;;;5052634;28;20394;-75
2021/01/23 13:49:04;;;;;;;130.40;48.00;;;;;;;;;;5052786;28;20202;-75
2021/01/23 13:51:29;;;;;;;26.53;11.03;;;7.60;1.00;;;;;;5052465;28;20414;-75
2021/01/23 13:53:55;;;;;;;37.93;14.47;;;7.50;1.00;;;;;;5052340;28;20874;-75